Aosta, Italy

10:16 PM CEST on July 30, 2015 (GMT +0200)
Senin, Saint-Christophe | | Change Station
CLOSE
Current Station
Personal Weather Station
Location: Aosta, VALLE DAOSTA
Elevation: 2392 ft
Nearby Weather Stations

Elev 2392 ft 45.75 °N, 7.34 °E | Updated 31 seconds ago

Clear
Clear
70.0 °F
Feels Like 70.0 °F
N
4.0
Wind Variable Wind from WNW
Gusts 7.0 mph

Today
High -- | Low -- °F
--% Chance of Precip.
Yesterday
High -- | Low -- °F
Precip. -- in
6:10 AM 9:02 PM
Waxing Gibbous, 99% visible
Pressure 29.95 in
Visibility 6.2 miles
Clouds
Dew Point 41 °F
Humidity 35%
Rainfall 0.00 in
Snow Depth Not available.
UV Not available.
Pollen Not available.
Air Quality Not available.
Flu Activity Not available.
METAR LSMS 301950Z AUTO 23006KT 9999NDV NCD 19/07 Q1014 RMK BLU

More Conditions Fewer Conditions

Pressure 29.95 in
Visibility 6.2 miles
Clouds
Dew Point 41 °F
Humidity 35%
Rainfall 0.00 in
Snow Depth Not available.
UV Not available.
Pollen Not available.
Air Quality Not available.
Flu Activity Not available.
METAR LSMS 301950Z AUTO 23006KT 9999NDV NCD 19/07 Q1014 RMK BLU

More Conditions Fewer Conditions

10-Day Weather Forecast

×

Almanac

Astronomy

Jul. 30, 2015 Rise Set
Actual Time
Civil Twilight
Nautical Twilight
Astronomical Twilight
Moon
Length of Visible Light
Length of Day
Tomorrow will be .
, % of the Moon is Illuminated

Today's Extremes

Country Highs Country Lows

Community

WunderPhotos

Upload Photos

1,842,495 photos uploaded!

WunderBlogs® & News

Nearby

Air Quality

  Air Quality AQ Index Pollutant
Not available.

Snow Depth

Station Depth Elevation

Earthquake Activity

City Distance Mag. Time & Date
Minimum magnitude displayed is 2.5.

Coastal Water Temperatures

Place Temperature

Stations

Nearby Weather Stations

Station Location Temp. Windchill Dew Point Humidity Wind Precip. Elev Updated Type